Time;durP1;ratioP1;P1;durP2;ratioP2;P2;SDS_P1;SDS_P2;PMS_P1;PMS_P2;Temp;Humidity;BMP_temperature;BMP_pressure;BME280_temperature;BME280_humidity;BME280_pressure;Samples;Min_cycle;Max_cycle;Signal;HPM_P1;HPM_P2
2022/08/06 00:02:20;;;;;;;;;;;10.60;99.90;;;;;;4904332;29;20403;-60
2022/08/06 00:04:52;;;;;;;;;;;10.60;99.90;;;;;;4911923;29;19927;-58
2022/08/06 00:07:20;;;;;;;;;;;10.50;99.90;;;;;;4914991;29;19935;-60
2022/08/06 00:09:52;;;;;;;;;;;10.50;99.90;;;;;;4907790;29;19931;-60
2022/08/06 00:12:31;;;;;;;;;;;10.40;99.90;;;;;;4908964;29;19935;-59
2022/08/06 00:15:04;;;;;;;;;;;10.40;99.90;;;;;;4903212;29;19927;-58
2022/08/06 00:17:41;;;;;;;;;;;10.40;99.90;;;;;;4907552;29;20295;-59
2022/08/06 00:20:10;;;;;;;;;;;10.40;99.90;;;;;;4915574;29;19934;-57
2022/08/06 00:22:58;;;;;;;;;;;10.40;99.90;;;;;;4909810;29;19931;-59
2022/08/06 00:25:25;;;;;;;;;;;10.30;99.90;;;;;;4905455;29;19927;-56
2022/08/06 00:27:54;;;;;;;;;;;10.30;99.90;;;;;;4903223;29;19931;-56
2022/08/06 00:30:22;;;;;;;;;;;10.30;99.90;;;;;;4914393;29;19934;-58
2022/08/06 00:32:51;;;;;;;;;;;10.30;99.90;;;;;;4900051;29;19943;-55
2022/08/06 00:35:20;;;;;;;;;;;10.20;99.90;;;;;;4913445;29;20284;-60
2022/08/06 00:37:50;;;;;;;;;;;10.30;99.90;;;;;;4913929;29;19927;-57
2022/08/06 00:40:28;;;;;;;;;;;10.20;99.90;;;;;;4913273;29;19927;-57
2022/08/06 00:42:57;;;;;;;;;;;10.20;99.90;;;;;;4899639;29;19947;-60
2022/08/06 00:45:32;;;;;;;;;;;10.20;99.90;;;;;;4911732;29;19931;-58
2022/08/06 00:48:08;;;;;;;;;;;10.10;99.90;;;;;;4909006;29;19931;-58
2022/08/06 00:50:55;;;;;;;;;;;10.10;99.90;;;;;;4909308;29;19950;-58
2022/08/06 00:53:23;;;;;;;;;;;10.00;99.90;;;;;;4911268;29;19943;-60
2022/08/06 00:56:01;;;;;;;;;;;10.00;99.90;;;;;;4903523;29;19936;-61
2022/08/06 00:58:37;;;;;;;;;;;9.90;99.90;;;;;;4893723;29;19927;-59
2022/08/06 01:01:10;;;;;;;;;;;9.90;99.90;;;;;;4913248;29;20002;-54
2022/08/06 01:03:43;;;;;;;;;;;9.90;99.90;;;;;;4907503;29;19927;-58
2022/08/06 01:06:19;;;;;;;;;;;9.90;99.90;;;;;;4911923;29;19931;-57
2022/08/06 01:09:07;;;;;;;;;;;9.80;99.90;;;;;;4908878;29;19927;-58
2022/08/06 01:11:36;;;;;;;;;;;9.80;99.90;;;;;;4896420;29;19935;-57
2022/08/06 01:14:04;;;;;;;;;;;9.80;99.90;;;;;;4898924;29;19934;-60
2022/08/06 01:16:44;;;;;;;;;;;9.80;99.90;;;;;;4909780;29;19931;-60
2022/08/06 01:19:12;;;;;;;;;;;9.80;99.90;;;;;;4906765;29;19942;-60
2022/08/06 01:22:15;;;;;;;;;;;9.70;99.90;;;;;;4913210;29;19927;-55
2022/08/06 01:25:21;;;;;;;;;;;9.70;99.90;;;;;;4909841;29;19935;-57
2022/08/06 01:27:51;;;;;;;;;;;9.60;99.90;;;;;;4897873;29;19931;-58
2022/08/06 01:30:19;;;;;;;;;;;9.60;99.90;;;;;;4902618;29;20414;-55
2022/08/06 01:32:57;;;;;;;;;;;9.50;99.90;;;;;;4914938;29;19931;-54
2022/08/06 01:35:28;;;;;;;;;;;9.50;99.90;;;;;;4907282;29;19935;-56
2022/08/06 01:38:17;;;;;;;;;;;9.50;99.90;;;;;;4900369;29;19927;-55
2022/08/06 01:40:49;;;;;;;;;;;9.50;99.90;;;;;;4898703;29;19943;-55
2022/08/06 01:43:19;;;;;;;;;;;9.40;99.90;;;;;;4915753;29;19927;-54
2022/08/06 01:46:08;;;;;;;;;;;9.40;99.90;;;;;;4911772;29;19931;-55
2022/08/06 01:48:37;;;;;;;;;;;9.40;99.90;;;;;;4908357;29;19944;-58
2022/08/06 01:51:07;;;;;;;;;;;9.40;99.90;;;;;;4904934;29;19931;-58
2022/08/06 01:53:47;;;;;;;;;;;9.40;99.90;;;;;;4916938;29;19927;-54
2022/08/06 01:56:35;;;;;;;;;;;9.40;99.90;;;;;;4915842;29;19935;-55
2022/08/06 01:59:24;;;;;;;;;;;9.40;99.90;;;;;;4915093;29;19935;-56
2022/08/06 02:01:53;;;;;;;;;;;9.40;99.90;;;;;;4916925;29;19931;-56
2022/08/06 02:04:23;;;;;;;;;;;9.40;99.90;;;;;;4917060;29;19934;-58
2022/08/06 02:06:51;;;;;;;;;;;9.30;99.90;;;;;;4915406;29;20488;-58
2022/08/06 02:09:20;;;;;;;;;;;9.30;99.90;;;;;;4916906;29;19934;-58
2022/08/06 02:12:06;;;;;;;;;;;9.30;99.90;;;;;;4916767;29;19931;-55
2022/08/06 02:14:36;;;;;;;;;;;9.30;99.90;;;;;;4914770;29;19938;-58
2022/08/06 02:17:05;;;;;;;;;;;9.30;99.90;;;;;;4916730;29;20552;-59
2022/08/06 02:19:43;;;;;;;;;;;9.30;99.90;;;;;;4915509;29;19934;-58
2022/08/06 02:22:26;;;;;;;;;;;9.20;99.90;;;;;;4916470;29;19927;-58
2022/08/06 02:25:02;;;;;;;;;;;9.30;99.90;;;;;;4916713;29;19927;-59
2022/08/06 02:27:43;;;;;;;;;;;9.20;99.90;;;;;;4912455;29;19927;-57
2022/08/06 02:30:25;;;;;;;;;;;9.20;99.90;;;;;;4916491;29;19934;-56
2022/08/06 02:33:01;;;;;;;;;;;9.20;99.90;;;;;;4916469;29;19927;-60
2022/08/06 02:35:30;;;;;;;;;;;9.20;99.90;;;;;;4916823;29;19927;-60
2022/08/06 02:38:07;;;;;;;;;;;9.20;99.90;;;;;;4916206;29;20294;-58
2022/08/06 02:40:40;;;;;;;;;;;9.20;99.90;;;;;;4915049;29;19927;-56
2022/08/06 02:43:16;;;;;;;;;;;9.20;99.90;;;;;;4916550;29;20295;-59
2022/08/06 02:45:55;;;;;;;;;;;9.20;99.90;;;;;;4915129;29;19934;-58
2022/08/06 02:48:43;;;;;;;;;;;9.10;99.90;;;;;;4916333;29;19927;-58
2022/08/06 02:51:17;;;;;;;;;;;9.20;99.90;;;;;;4916031;29;19935;-54
2022/08/06 02:54:11;;;;;;;;;;;9.10;99.90;;;;;;4916247;29;19927;-59
2022/08/06 02:56:43;;;;;;;;;;;9.10;99.90;;;;;;4915922;29;20279;-55
2022/08/06 02:59:15;;;;;;;;;;;9.10;99.90;;;;;;4916047;29;19927;-55
2022/08/06 03:01:48;;;;;;;;;;;9.10;99.90;;;;;;4916024;29;19934;-55
2022/08/06 03:04:18;;;;;;;;;;;9.10;99.90;;;;;;4915955;29;19935;-57
2022/08/06 03:06:59;;;;;;;;;;;9.10;99.90;;;;;;4925824;29;19927;-59
2022/08/06 03:09:28;;;;;;;;;;;9.10;99.90;;;;;;4915942;29;19935;-54
2022/08/06 03:11:59;;;;;;;;;;;9.10;99.90;;;;;;4912732;29;20406;-59
2022/08/06 03:14:28;;;;;;;;;;;9.10;99.90;;;;;;4918125;29;19934;-55
2022/08/06 03:17:16;;;;;;;;;;;9.00;99.90;;;;;;4915946;29;19931;-57
2022/08/06 03:19:44;;;;;;;;;;;9.10;99.90;;;;;;4915730;29;19927;-58
2022/08/06 03:22:26;;;;;;;;;;;9.00;99.90;;;;;;4915730;29;19927;-58
2022/08/06 03:25:09;;;;;;;;;;;9.00;99.90;;;;;;4915730;29;20527;-57
2022/08/06 03:27:38;;;;;;;;;;;9.00;99.90;;;;;;4915717;29;19934;-55
2022/08/06 03:30:14;;;;;;;;;;;9.00;99.90;;;;;;4915714;29;19927;-59
2022/08/06 03:33:02;;;;;;;;;;;9.00;99.90;;;;;;4915578;29;19927;-59
2022/08/06 03:35:50;;;;;;;;;;;9.00;99.90;;;;;;4914587;29;19934;-60
2022/08/06 03:38:22;;;;;;;;;;;8.90;99.90;;;;;;4914464;29;19931;-56
2022/08/06 03:40:57;;;;;;;;;;;9.00;99.90;;;;;;4915664;29;20410;-58
2022/08/06 03:43:24;;;;;;;;;;;9.00;99.90;;;;;;4915668;29;19927;-58
2022/08/06 03:46:13;;;;;;;;;;;9.00;99.90;;;;;;4915380;29;19934;-58
2022/08/06 03:48:41;;;;;;;;;;;8.90;99.90;;;;;;4915484;29;19927;-59
2022/08/06 03:51:13;;;;;;;;;;;8.90;99.90;;;;;;4915043;29;20272;-56
2022/08/06 03:53:41;;;;;;;;;;;8.90;99.90;;;;;;4930041;29;19935;-54
2022/08/06 03:56:19;;;;;;;;;;;8.90;99.90;;;;;;4914058;29;19934;-56
2022/08/06 03:58:59;;;;;;;;;;;8.90;99.90;;;;;;4915796;29;19927;-54
2022/08/06 04:01:27;;;;;;;;;;;8.90;99.90;;;;;;4915191;29;19927;-54
2022/08/06 04:03:57;;;;;;;;;;;8.90;99.90;;;;;;4915603;29;19934;-54
2022/08/06 04:06:25;;;;;;;;;;;8.80;99.90;;;;;;4915543;29;19935;-56
2022/08/06 04:08:54;;;;;;;;;;;8.80;99.90;;;;;;4929420;29;19927;-58
2022/08/06 04:11:22;;;;;;;;;;;8.80;99.90;;;;;;4915452;29;19931;-58
2022/08/06 04:14:10;;;;;;;;;;;8.80;99.90;;;;;;4914347;29;19927;-57
2022/08/06 04:16:38;;;;;;;;;;;8.70;99.90;;;;;;4915852;29;19927;-57
2022/08/06 04:19:08;;;;;;;;;;;8.70;99.90;;;;;;4918619;29;19934;-56
2022/08/06 04:21:42;;;;;;;;;;;8.70;99.90;;;;;;4918735;29;19943;-59
2022/08/06 04:24:30;;;;;;;;;;;8.70;99.90;;;;;;4915329;29;20528;-58
2022/08/06 04:27:03;;;;;;;;;;;8.60;99.90;;;;;;4918649;29;19927;-56
2022/08/06 04:29:37;;;;;;;;;;;8.60;99.90;;;;;;4918323;29;19934;-59
2022/08/06 04:32:25;;;;;;;;;;;8.60;99.90;;;;;;4918275;29;19935;-55
2022/08/06 04:35:01;;;;;;;;;;;8.60;99.90;;;;;;4911803;29;19954;-58
2022/08/06 04:37:49;;;;;;;;;;;8.60;99.90;;;;;;4899616;29;19928;-56
2022/08/06 04:40:19;;;;;;;;;;;8.60;99.90;;;;;;4899700;29;20503;-56
2022/08/06 04:43:08;;;;;;;;;;;8.60;99.90;;;;;;4899559;29;19928;-57
2022/08/06 04:45:40;;;;;;;;;;;8.60;99.90;;;;;;4899235;29;19927;-58
2022/08/06 04:48:27;;;;;;;;;;;8.60;99.90;;;;;;4904578;29;19931;-58
2022/08/06 04:51:06;;;;;;;;;;;8.60;99.90;;;;;;4914661;29;19963;-59
2022/08/06 04:53:43;;;;;;;;;;;8.60;99.90;;;;;;4915085;29;19927;-59
2022/08/06 04:56:24;;;;;;;;;;;8.60;99.90;;;;;;4915009;29;19927;-60
2022/08/06 04:59:04;;;;;;;;;;;8.60;99.90;;;;;;4902878;29;20529;-59
2022/08/06 05:01:34;;;;;;;;;;;8.60;99.90;;;;;;4896741;29;20569;-60
2022/08/06 05:04:22;;;;;;;;;;;8.60;99.90;;;;;;4910378;29;19931;-58
2022/08/06 05:06:56;;;;;;;;;;;8.70;99.90;;;;;;4910476;29;19931;-56
2022/08/06 05:09:25;;;;;;;;;;;8.60;99.90;;;;;;4911459;29;19931;-58
2022/08/06 05:12:19;;;;;;;;;;;8.60;99.90;;;;;;4911862;29;19927;-58
2022/08/06 05:14:53;;;;;;;;;;;8.60;99.90;;;;;;4914650;29;20012;-57
2022/08/06 05:17:22;;;;;;;;;;;8.70;99.90;;;;;;4912901;29;19927;-58
2022/08/06 05:19:55;;;;;;;;;;;8.60;99.90;;;;;;4914871;29;19935;-59
2022/08/06 05:22:23;;;;;;;;;;;8.70;99.90;;;;;;4908926;29;19927;-59
2022/08/06 05:25:11;;;;;;;;;;;8.70;99.90;;;;;;4925647;29;19931;-58
2022/08/06 05:27:48;;;;;;;;;;;8.80;99.90;;;;;;4910755;29;19927;-58
2022/08/06 05:30:43;;;;;;;;;;;8.80;99.90;;;;;;4902762;29;19935;-58
2022/08/06 05:33:21;;;;;;;;;;;8.80;99.90;;;;;;4910220;29;19931;-55
2022/08/06 05:35:50;;;;;;;;;;;8.80;99.90;;;;;;4914416;29;19938;-56
2022/08/06 05:38:32;;;;;;;;;;;8.80;99.90;;;;;;4907482;29;19931;-57
2022/08/06 05:41:04;;;;;;;;;;;8.90;99.90;;;;;;4926012;29;19927;-58
2022/08/06 05:43:35;;;;;;;;;;;8.90;99.90;;;;;;4892189;29;19931;-56
2022/08/06 05:46:23;;;;;;;;;;;8.90;99.90;;;;;;4901660;29;20379;-57
2022/08/06 05:48:52;;;;;;;;;;;9.00;99.90;;;;;;4913299;29;20325;-58
2022/08/06 05:51:33;;;;;;;;;;;9.00;99.90;;;;;;4913762;29;19934;-59
2022/08/06 05:54:15;;;;;;;;;;;9.10;99.90;;;;;;4913573;29;19931;-59
2022/08/06 05:56:45;;;;;;;;;;;9.20;99.90;;;;;;4901340;29;19935;-56
2022/08/06 05:59:17;;;;;;;;;;;9.20;99.90;;;;;;4909851;29;19931;-59
2022/08/06 06:02:05;;;;;;;;;;;9.30;99.90;;;;;;4912645;29;21394;-59
2022/08/06 06:04:33;;;;;;;;;;;9.40;99.90;;;;;;4913045;29;19931;-55
2022/08/06 06:07:01;;;;;;;;;;;9.40;99.90;;;;;;4900169;29;20329;-58
2022/08/06 06:09:35;;;;;;;;;;;9.50;99.90;;;;;;4909611;29;20287;-59
2022/08/06 06:12:23;;;;;;;;;;;9.50;99.90;;;;;;4898016;29;19931;-56
2022/08/06 06:15:00;;;;;;;;;;;9.60;99.90;;;;;;4913614;29;19927;-59
2022/08/06 06:17:54;;;;;;;;;;;9.70;99.90;;;;;;4910227;29;19928;-59
2022/08/06 06:20:29;;;;;;;;;;;9.70;99.90;;;;;;4913405;29;19928;-58
2022/08/06 06:23:28;;;;;;;;;;;9.80;99.90;;;;;;4913330;29;20375;-55
2022/08/06 06:25:59;;;;;;;;;;;9.80;99.90;;;;;;4905083;29;19931;-55
2022/08/06 06:28:45;;;;;;;;;;;9.90;99.90;;;;;;4913199;29;19927;-56
2022/08/06 06:31:24;;;;;;;;;;;10.00;99.90;;;;;;4896283;29;19932;-55
2022/08/06 06:34:15;;;;;;;;;;;10.00;99.90;;;;;;4909728;29;19935;-58
2022/08/06 06:36:50;;;;;;;;;;;10.10;99.90;;;;;;4911273;29;19934;-58
2022/08/06 06:39:31;;;;;;;;;;;10.20;99.90;;;;;;4901615;29;20310;-59
2022/08/06 06:42:29;;;;;;;;;;;10.30;99.90;;;;;;4908691;29;19935;-59
2022/08/06 06:45:12;;;;;;;;;;;10.40;99.90;;;;;;4898284;29;20415;-59
2022/08/06 06:48:03;;;;;;;;;;;10.50;99.90;;;;;;4902789;29;19927;-56
2022/08/06 06:50:37;;;;;;;;;;;10.60;99.90;;;;;;4915430;29;20515;-59
2022/08/06 06:53:06;;;;;;;;;;;10.70;99.90;;;;;;4901543;29;19934;-58
2022/08/06 06:55:56;;;;;;;;;;;10.80;99.90;;;;;;4898048;29;20291;-60
2022/08/06 06:58:34;;;;;;;;;;;10.80;99.90;;;;;;4902751;29;19935;-58
2022/08/06 07:01:04;;;;;;;;;;;11.00;99.90;;;;;;4913100;29;19938;-55
2022/08/06 07:03:52;;;;;;;;;;;11.10;99.90;;;;;;4907663;29;19941;-56
2022/08/06 07:06:22;;;;;;;;;;;11.20;99.90;;;;;;4897219;29;19942;-58
2022/08/06 07:09:16;;;;;;;;;;;11.20;99.90;;;;;;4892266;29;20374;-57
2022/08/06 07:12:04;;;;;;;;;;;11.20;99.90;;;;;;4902951;29;19951;-55
2022/08/06 07:14:48;;;;;;;;;;;11.50;99.90;;;;;;4907896;29;19943;-55
2022/08/06 07:17:28;;;;;;;;;;;11.50;99.90;;;;;;4905586;29;19927;-55
2022/08/06 07:20:26;;;;;;;;;;;11.60;99.90;;;;;;4906234;29;19927;-55
2022/08/06 07:22:57;;;;;;;;;;;11.80;99.90;;;;;;4902073;29;19931;-58
2022/08/06 07:25:47;;;;;;;;;;;11.90;99.90;;;;;;4900655;29;19927;-58
2022/08/06 07:28:25;;;;;;;;;;;12.10;99.90;;;;;;4899517;29;19931;-60
2022/08/06 07:31:04;;;;;;;;;;;12.30;99.90;;;;;;4891484;29;19938;-59
2022/08/06 07:33:37;;;;;;;;;;;12.50;99.90;;;;;;4910492;29;20354;-60
2022/08/06 07:36:27;;;;;;;;;;;12.70;99.90;;;;;;4924459;29;20296;-60
2022/08/06 07:38:56;;;;;;;;;;;13.00;99.90;;;;;;4922102;29;19926;-60
2022/08/06 07:41:26;;;;;;;;;;;13.10;99.90;;;;;;4931421;29;19927;-61
2022/08/06 07:44:13;;;;;;;;;;;13.20;99.90;;;;;;4912111;29;19927;-58
2022/08/06 07:46:51;;;;;;;;;;;13.30;99.90;;;;;;4926918;29;19935;-61
2022/08/06 07:49:20;;;;;;;;;;;13.30;99.90;;;;;;4929728;29;20303;-59
2022/08/06 07:51:58;;;;;;;;;;;13.30;99.90;;;;;;4929331;29;19927;-61
2022/08/06 07:54:30;;;;;;;;;;;13.30;99.90;;;;;;4916201;29;19934;-61
2022/08/06 07:57:01;;;;;;;;;;;13.40;99.90;;;;;;4915960;29;20417;-60
2022/08/06 07:59:29;;;;;;;;;;;13.40;99.90;;;;;;4930232;29;19934;-61
2022/08/06 08:02:02;;;;;;;;;;;13.50;99.90;;;;;;4915763;29;19927;-61
2022/08/06 08:07:21;;;;;;;;;;;13.60;99.90;;;;;;4898803;29;19928;-60
2022/08/06 08:10:04;;;;;;;;;;;13.70;99.90;;;;;;4915846;29;19927;-60
2022/08/06 08:12:33;;;;;;;;;;;13.80;99.90;;;;;;4913940;29;19931;-60
2022/08/06 08:15:05;;;;;;;;;;;13.90;99.90;;;;;;4927047;29;20005;-59
2022/08/06 08:17:49;;;;;;;;;;;14.10;99.90;;;;;;4928382;29;19927;-62
2022/08/06 08:20:26;;;;;;;;;;;14.10;99.90;;;;;;4895424;29;19935;-61
2022/08/06 08:23:03;;;;;;;;;;;14.20;99.90;;;;;;4905676;29;19934;-60
2022/08/06 08:25:32;;;;;;;;;;;14.30;99.90;;;;;;4913704;29;19938;-59
2022/08/06 08:28:10;;;;;;;;;;;14.40;99.90;;;;;;4906442;29;20306;-58
2022/08/06 08:30:43;;;;;;;;;;;14.50;99.90;;;;;;4915187;29;19935;-58
2022/08/06 08:33:17;;;;;;;;;;;14.50;99.90;;;;;;4914574;29;19934;-60
2022/08/06 08:35:49;;;;;;;;;;;14.60;99.90;;;;;;4911698;29;20398;-58
2022/08/06 08:38:28;;;;;;;;;;;14.70;99.90;;;;;;4909256;29;19939;-61
2022/08/06 08:40:58;;;;;;;;;;;14.70;99.90;;;;;;4905414;29;19935;-62
2022/08/06 08:43:36;;;;;;;;;;;14.90;99.90;;;;;;4909611;29;19934;-62
2022/08/06 08:46:23;;;;;;;;;;;15.00;99.90;;;;;;4896089;29;19932;-64
2022/08/06 08:49:00;;;;;;;;;;;15.10;99.90;;;;;;4906581;29;19934;-61
2022/08/06 08:51:27;;;;;;;;;;;15.20;99.90;;;;;;4915747;29;19938;-59
2022/08/06 08:53:58;;;;;;;;;;;15.20;99.90;;;;;;4909348;29;19934;-63
2022/08/06 08:56:26;;;;;;;;;;;15.30;99.90;;;;;;4914152;29;20398;-60
2022/08/06 08:59:14;;;;;;;;;;;15.40;99.90;;;;;;4913811;29;20197;-63
2022/08/06 09:02:01;;;;;;;;;;;15.50;99.90;;;;;;4907851;29;19931;-62
2022/08/06 09:04:31;;;;;;;;;;;15.60;99.90;;;;;;4913168;29;20287;-62
2022/08/06 09:07:01;;;;;;;;;;;15.70;99.90;;;;;;4911141;29;19939;-59
2022/08/06 09:09:30;;;;;;;;;;;15.80;99.90;;;;;;4906050;29;20326;-62
2022/08/06 09:11:59;;;;;;;;;;;15.90;99.90;;;;;;4902104;29;19927;-63
2022/08/06 09:14:35;;;;;;;;;;;16.00;99.90;;;;;;4903461;29;19934;-60
2022/08/06 09:17:06;;;;;;;;;;;16.10;99.90;;;;;;4907224;29;19931;-62
2022/08/06 09:19:38;;;;;;;;;;;16.20;99.90;;;;;;4896689;29;19927;-62
2022/08/06 09:22:08;;;;;;;;;;;16.20;99.90;;;;;;4902830;29;19947;-60
2022/08/06 09:24:38;;;;;;;;;;;16.30;99.90;;;;;;4911302;29;19927;-63
2022/08/06 09:27:08;;;;;;;;;;;16.30;99.90;;;;;;4913304;29;19927;-63
2022/08/06 09:29:57;;;;;;;;;;;16.40;99.90;;;;;;4913811;29;19934;-62
2022/08/06 09:32:41;;;;;;;;;;;16.50;99.90;;;;;;4928517;29;19931;-62
2022/08/06 09:35:24;;;;;;;;;;;16.70;99.90;;;;;;4914052;29;19927;-61
2022/08/06 09:38:12;;;;;;;;;;;16.80;99.90;;;;;;4913308;29;19927;-63
2022/08/06 09:41:03;;;;;;;;;;;16.80;99.90;;;;;;4912809;29;19931;-61
2022/08/06 09:43:33;;;;;;;;;;;16.80;99.90;;;;;;4911969;29;20293;-62
2022/08/06 09:46:36;;;;;;;;;;;16.80;99.90;;;;;;4912443;29;19960;-63
2022/08/06 09:49:05;;;;;;;;;;;16.80;99.90;;;;;;4912505;29;19927;-63
2022/08/06 09:52:12;;;;;;;;;;;16.80;99.90;;;;;;4912731;29;20843;-63
2022/08/06 09:54:40;;;;;;;;;;;16.90;99.90;;;;;;4912414;29;19934;-63
2022/08/06 09:57:09;;;;;;;;;;;17.10;99.90;;;;;;4910899;29;19931;-63
2022/08/06 09:59:44;;;;;;;;;;;17.20;99.90;;;;;;4909650;29;19931;-63
2022/08/06 10:02:17;;;;;;;;;;;17.50;99.90;;;;;;4910488;29;20330;-63
2022/08/06 10:05:13;;;;;;;;;;;17.80;99.90;;;;;;4909961;29;19931;-62
2022/08/06 10:07:47;;;;;;;;;;;18.10;99.90;;;;;;4913501;29;20286;-62
2022/08/06 10:10:37;;;;;;;;;;;18.30;99.90;;;;;;4913810;29;19928;-64
2022/08/06 10:13:11;;;;;;;;;;;18.30;99.40;;;;;;4913483;29;19927;-57
2022/08/06 10:15:40;;;;;;;;;;;18.20;99.80;;;;;;4913850;29;19934;-56
2022/08/06 10:18:33;;;;;;;;;;;18.20;99.70;;;;;;4903094;29;19927;-57
2022/08/06 10:21:25;;;;;;;;;;;18.30;99.10;;;;;;4913717;29;19927;-59
2022/08/06 10:23:55;;;;;;;;;;;18.40;98.50;;;;;;4913183;29;20375;-63
2022/08/06 10:26:27;;;;;;;;;;;18.40;98.00;;;;;;4894573;29;19934;-63
2022/08/06 10:29:01;;;;;;;;;;;18.40;98.30;;;;;;4922343;29;20523;-60
2022/08/06 10:31:30;;;;;;;;;;;18.30;98.80;;;;;;4913276;29;19927;-57
2022/08/06 10:34:01;;;;;;;;;;;18.40;98.60;;;;;;4913173;29;19938;-62
2022/08/06 10:36:39;;;;;;;;;;;18.50;97.80;;;;;;4912370;29;20434;-63
2022/08/06 10:39:07;;;;;;;;;;;18.70;97.70;;;;;;4913289;29;19927;-63
2022/08/06 10:41:55;;;;;;;;;;;18.80;96.60;;;;;;4894229;29;19939;-57
2022/08/06 10:44:30;;;;;;;;;;;18.90;96.80;;;;;;4894516;29;19927;-58
2022/08/06 10:47:05;;;;;;;;;;;18.90;97.00;;;;;;4892435;29;19932;-59
2022/08/06 10:49:33;;;;;;;;;;;18.90;96.60;;;;;;4908617;29;19934;-55
2022/08/06 10:52:21;;;;;;;;;;;18.80;96.70;;;;;;4911749;29;20401;-57
2022/08/06 10:54:51;;;;;;;;;;;18.80;97.10;;;;;;4922961;29;20005;-61
2022/08/06 10:57:19;;;;;;;;;;;19.00;96.40;;;;;;4894580;29;19928;-61
2022/08/06 11:00:03;;;;;;;;;;;19.10;95.90;;;;;;4913182;29;19931;-61
2022/08/06 11:02:45;;;;;;;;;;;19.20;95.60;;;;;;4912610;29;20457;-59
2022/08/06 11:05:26;;;;;;;;;;;19.30;95.50;;;;;;4913102;29;20402;-59
2022/08/06 11:08:13;;;;;;;;;;;19.50;94.40;;;;;;4912838;29;19939;-60
2022/08/06 11:11:20;;;;;;;;;;;19.70;94.50;;;;;;4912845;29;19934;-63
2022/08/06 11:13:49;;;;;;;;;;;20.00;93.80;;;;;;4912497;29;19934;-63
2022/08/06 11:16:23;;;;;;;;;;;20.30;93.20;;;;;;4912860;29;19927;-62
2022/08/06 11:19:02;;;;;;;;;;;20.50;93.70;;;;;;4912671;29;20302;-63
2022/08/06 11:21:41;;;;;;;;;;;20.60;91.90;;;;;;4912996;29;19938;-63
2022/08/06 11:24:29;;;;;;;;;;;20.70;91.70;;;;;;4912801;29;19935;-60
2022/08/06 11:27:04;;;;;;;;;;;20.80;91.00;;;;;;4892184;29;20390;-62
2022/08/06 11:29:56;;;;;;;;;;;20.90;90.80;;;;;;4911774;29;19927;-63
2022/08/06 11:32:44;;;;;;;;;;;21.10;91.00;;;;;;4912457;29;19964;-63
2022/08/06 11:35:32;;;;;;;;;;;21.20;91.10;;;;;;4927174;29;19938;-63
2022/08/06 11:38:06;;;;;;;;;;;21.30;89.00;;;;;;4912549;29;19927;-63
2022/08/06 11:40:57;;;;;;;;;;;21.10;89.50;;;;;;4912532;29;19927;-61
2022/08/06 11:43:38;;;;;;;;;;;21.10;90.20;;;;;;4912218;29;19931;-63
2022/08/06 11:46:27;;;;;;;;;;;21.10;90.30;;;;;;4911446;29;19931;-63
2022/08/06 11:49:03;;;;;;;;;;;21.00;90.60;;;;;;4912359;29;19927;-63
2022/08/06 11:51:36;;;;;;;;;;;21.10;90.90;;;;;;4912706;29;19928;-61
2022/08/06 11:54:14;;;;;;;;;;;21.30;90.60;;;;;;4912276;29;20327;-63
2022/08/06 11:57:00;;;;;;;;;;;21.50;89.50;;;;;;4912350;29;19986;-62
2022/08/06 11:59:29;;;;;;;;;;;21.70;90.10;;;;;;4912102;29;19927;-63
2022/08/06 12:01:57;;;;;;;;;;;22.10;89.50;;;;;;4912429;29;19958;-64
2022/08/06 12:04:38;;;;;;;;;;;22.40;88.70;;;;;;4908127;29;19935;-64
2022/08/06 12:07:15;;;;;;;;;;;22.40;85.90;;;;;;4893660;29;19938;-64
2022/08/06 12:09:47;;;;;;;;;;;22.20;85.80;;;;;;4912155;29;19931;-59
2022/08/06 12:12:23;;;;;;;;;;;22.10;85.60;;;;;;4912219;29;20342;-60
2022/08/06 12:14:54;;;;;;;;;;;22.30;86.60;;;;;;4912333;29;19934;-58
2022/08/06 12:17:22;;;;;;;;;;;22.70;87.60;;;;;;4912257;29;19934;-58
2022/08/06 12:20:09;;;;;;;;;;;23.10;85.80;;;;;;4926739;29;19927;-59
2022/08/06 12:22:39;;;;;;;;;;;23.60;85.10;;;;;;4912037;29;19934;-61
2022/08/06 12:25:16;;;;;;;;;;;24.10;84.20;;;;;;4911020;29;19931;-61
2022/08/06 12:27:44;;;;;;;;;;;24.50;82.70;;;;;;4910825;29;19927;-63
2022/08/06 12:30:21;;;;;;;;;;;24.90;81.50;;;;;;4912193;29;20555;-63
2022/08/06 12:33:05;;;;;;;;;;;25.00;78.00;;;;;;4911857;29;19935;-63
2022/08/06 12:35:51;;;;;;;;;;;24.80;76.50;;;;;;4911255;29;19950;-63
2022/08/06 12:38:20;;;;;;;;;;;24.20;75.90;;;;;;4912109;29;19934;-63
2022/08/06 12:40:52;;;;;;;;;;;23.70;76.90;;;;;;4915414;29;19927;-60
2022/08/06 12:43:23;;;;;;;;;;;23.60;80.20;;;;;;4915152;29;19927;-62
2022/08/06 12:46:11;;;;;;;;;;;24.00;80.20;;;;;;4915506;29;19934;-63
2022/08/06 12:48:48;;;;;;;;;;;24.50;78.60;;;;;;4915205;29;19934;-63
2022/08/06 12:51:15;;;;;;;;;;;24.90;78.70;;;;;;4914151;29;20406;-63
2022/08/06 12:53:46;;;;;;;;;;;25.30;77.10;;;;;;4915060;29;19934;-62
2022/08/06 12:56:15;;;;;;;;;;;25.20;74.40;;;;;;4910718;29;19927;-62
2022/08/06 12:59:00;;;;;;;;;;;25.40;74.40;;;;;;4907406;29;19943;-63
2022/08/06 13:01:29;;;;;;;;;;;25.70;75.20;;;;;;4914966;29;19927;-62
2022/08/06 13:04:18;;;;;;;;;;;26.10;74.20;;;;;;4914931;29;19934;-62
2022/08/06 13:06:46;;;;;;;;;;;26.10;72.20;;;;;;4915159;29;19931;-64
2022/08/06 13:09:16;;;;;;;;;;;25.70;71.10;;;;;;4914749;29;20299;-63
2022/08/06 13:11:44;;;;;;;;;;;25.30;71.70;;;;;;4914988;29;19938;-60
2022/08/06 13:14:19;;;;;;;;;;;24.70;72.10;;;;;;4913505;29;19934;-63
2022/08/06 13:16:47;;;;;;;;;;;24.20;72.90;;;;;;4914881;29;19938;-58
2022/08/06 13:19:23;;;;;;;;;;;23.80;74.70;;;;;;4914886;29;19927;-64
2022/08/06 13:22:07;;;;;;;;;;;23.90;77.80;;;;;;4914475;29;20318;-64
2022/08/06 13:24:35;;;;;;;;;;;24.00;76.30;;;;;;4914637;29;19927;-58
2022/08/06 13:27:32;;;;;;;;;;;24.20;76.60;;;;;;4914718;29;19928;-64
2022/08/06 13:30:03;;;;;;;;;;;24.70;77.90;;;;;;4914731;29;19927;-64
2022/08/06 13:32:50;;;;;;;;;;;25.30;76.20;;;;;;4914658;29;19927;-64
2022/08/06 13:35:25;;;;;;;;;;;25.80;74.00;;;;;;4914327;29;19939;-63
2022/08/06 13:37:56;;;;;;;;;;;26.40;74.90;;;;;;4914403;29;20298;-62
2022/08/06 13:40:45;;;;;;;;;;;26.90;74.70;;;;;;4914584;29;20394;-64
2022/08/06 13:43:43;;;;;;;;;;;27.40;71.70;;;;;;4913974;29;19927;-63
2022/08/06 13:46:23;;;;;;;;;;;27.60;70.00;;;;;;4914122;29;19934;-64
2022/08/06 13:48:57;;;;;;;;;;;27.40;69.60;;;;;;4928115;29;19934;-63
2022/08/06 13:51:25;;;;;;;;;;;26.90;69.70;;;;;;4913757;29;19935;-65
2022/08/06 13:53:56;;;;;;;;;;;26.30;70.20;;;;;;4913946;29;19934;-64
2022/08/06 13:56:26;;;;;;;;;;;26.00;72.40;;;;;;4914196;29;19931;-63
2022/08/06 13:58:56;;;;;;;;;;;25.70;71.80;;;;;;4913789;29;19927;-64
2022/08/06 14:01:24;;;;;;;;;;;25.40;72.00;;;;;;4914082;29;19934;-64
2022/08/06 14:04:17;;;;;;;;;;;25.00;72.70;;;;;;4913625;29;19927;-64
2022/08/06 14:06:46;;;;;;;;;;;24.60;73.00;;;;;;4913890;29;20425;-63
2022/08/06 14:09:16;;;;;;;;;;;24.30;73.80;;;;;;4913666;29;19934;-62
2022/08/06 14:11:51;;;;;;;;;;;24.00;74.30;;;;;;4913930;29;19927;-64
2022/08/06 14:14:21;;;;;;;;;;;23.80;76.30;;;;;;4912192;29;19927;-61
2022/08/06 14:16:49;;;;;;;;;;;24.10;79.00;;;;;;4913863;29;19931;-63
2022/08/06 14:19:18;;;;;;;;;;;24.50;77.40;;;;;;4912322;29;19934;-61
2022/08/06 14:22:07;;;;;;;;;;;24.60;75.50;;;;;;4913506;29;19950;-58
2022/08/06 14:24:35;;;;;;;;;;;24.50;76.30;;;;;;4912482;29;19931;-60
2022/08/06 14:27:07;;;;;;;;;;;24.60;76.00;;;;;;4903806;29;19932;-61
2022/08/06 14:29:43;;;;;;;;;;;24.50;74.00;;;;;;4912679;29;19931;-57
2022/08/06 14:32:31;;;;;;;;;;;24.50;75.30;;;;;;4913150;29;19952;-59
2022/08/06 14:34:58;;;;;;;;;;;24.80;74.70;;;;;;4913943;29;19927;-61
2022/08/06 14:37:31;;;;;;;;;;;24.90;73.70;;;;;;4913208;29;19927;-60
2022/08/06 14:46:27;;;;;;;;;;;23.90;75.60;;;;;;4913641;29;19931;-58
2022/08/06 14:48:57;;;;;;;;;;;23.50;75.50;;;;;;4913373;29;19931;-62
2022/08/06 14:51:27;;;;;;;;;;;23.30;75.80;;;;;;4913034;29;19931;-64
2022/08/06 14:54:15;;;;;;;;;;;23.00;76.70;;;;;;4911595;29;19927;-63
2022/08/06 14:56:43;;;;;;;;;;;22.90;77.90;;;;;;4912896;29;19934;-63
2022/08/06 14:59:19;;;;;;;;;;;22.90;78.50;;;;;;4912982;29;19931;-60
2022/08/06 15:01:46;;;;;;;;;;;23.20;81.40;;;;;;4912311;29;19938;-64
2022/08/06 15:04:17;;;;;;;;;;;23.50;79.30;;;;;;4912673;29;20359;-63
2022/08/06 15:06:53;;;;;;;;;;;23.70;77.20;;;;;;4911630;29;19927;-64
2022/08/06 15:09:26;;;;;;;;;;;23.60;77.10;;;;;;4912524;29;19927;-61
2022/08/06 15:12:14;;;;;;;;;;;23.50;76.80;;;;;;4912741;29;19935;-60
2022/08/06 15:15:02;;;;;;;;;;;23.30;77.20;;;;;;4924761;29;20299;-63
2022/08/06 15:17:31;;;;;;;;;;;23.40;78.90;;;;;;4913062;29;20303;-62
2022/08/06 15:20:19;;;;;;;;;;;23.50;78.90;;;;;;4911481;29;20387;-63
2022/08/06 15:22:52;;;;;;;;;;;23.50;77.70;;;;;;4912661;29;20154;-63
2022/08/06 15:25:22;;;;;;;;;;;23.40;78.00;;;;;;4912825;29;19931;-64
2022/08/06 15:28:10;;;;;;;;;;;23.60;78.60;;;;;;4891231;29;19927;-62